createdAt,value
2019-01-28T00:00:14.419Z,99.90
2019-01-28T00:02:43.364Z,99.90
2019-01-28T00:05:12.029Z,99.90
2019-01-28T00:07:40.513Z,99.90
2019-01-28T00:10:09.753Z,99.90
2019-01-28T00:12:38.260Z,99.90
2019-01-28T00:15:08.156Z,99.90
2019-01-28T00:17:36.896Z,99.90
2019-01-28T00:20:07.107Z,99.90
2019-01-28T00:22:35.584Z,99.90
2019-01-28T00:25:05.962Z,99.90
2019-01-28T00:27:34.522Z,99.90
2019-01-28T00:30:03.037Z,99.90
2019-01-28T00:32:31.492Z,99.90
2019-01-28T00:34:59.984Z,99.90
2019-01-28T00:37:28.469Z,99.90
2019-01-28T00:39:56.917Z,99.90
2019-01-28T00:42:25.370Z,99.90
2019-01-28T00:44:53.933Z,99.90
2019-01-28T00:47:22.439Z,99.90
2019-01-28T00:49:50.875Z,99.90
2019-01-28T00:52:19.425Z,99.90
2019-01-28T00:54:47.896Z,99.90
2019-01-28T00:57:16.397Z,99.90
2019-01-28T00:59:44.936Z,99.90
2019-01-28T01:02:13.432Z,99.90
2019-01-28T01:04:41.918Z,99.90
2019-01-28T01:07:10.600Z,99.90
2019-01-28T01:09:39.160Z,99.90
2019-01-28T01:12:07.773Z,99.90
2019-01-28T01:14:36.240Z,99.90
2019-01-28T01:17:04.865Z,99.90
2019-01-28T01:19:33.332Z,99.90
2019-01-28T01:22:01.809Z,99.90
2019-01-28T01:24:30.551Z,99.90
2019-01-28T01:26:59.010Z,99.90
2019-01-28T01:29:27.456Z,99.90
2019-01-28T01:31:56.198Z,99.90
2019-01-28T01:34:24.719Z,99.90
2019-01-28T01:36:53.179Z,99.90
2019-01-28T01:39:21.756Z,99.90
2019-01-28T01:41:50.223Z,99.90
2019-01-28T01:44:18.689Z,99.90
2019-01-28T01:46:47.180Z,99.90
2019-01-28T01:49:15.675Z,99.90
2019-01-28T01:51:44.137Z,99.90
2019-01-28T01:54:12.583Z,99.90
2019-01-28T01:56:41.059Z,99.90
2019-01-28T01:59:09.510Z,99.90
2019-01-28T02:01:38.007Z,99.90
2019-01-28T02:04:06.555Z,99.90
2019-01-28T02:06:35.124Z,99.90
2019-01-28T02:09:05.142Z,99.90
2019-01-28T02:11:33.602Z,99.90
2019-01-28T02:14:02.060Z,99.90
2019-01-28T02:16:30.552Z,99.90
2019-01-28T02:18:59.060Z,99.90
2019-01-28T02:21:27.554Z,99.90
2019-01-28T02:23:56.040Z,99.90
2019-01-28T02:26:24.852Z,99.90
2019-01-28T02:28:53.368Z,99.90
2019-01-28T02:31:21.906Z,99.90
2019-01-28T02:33:50.452Z,99.90
2019-01-28T02:36:18.946Z,99.90
2019-01-28T02:38:47.416Z,99.90
2019-01-28T02:41:15.946Z,99.90
2019-01-28T02:43:44.864Z,99.90
2019-01-28T02:46:14.273Z,99.90
2019-01-28T02:48:42.872Z,99.90
2019-01-28T02:51:11.407Z,99.90
2019-01-28T02:53:39.898Z,99.90
2019-01-28T02:56:08.416Z,99.90
2019-01-28T02:58:36.880Z,99.90
2019-01-28T03:01:05.598Z,99.90
2019-01-28T03:03:34.061Z,99.90
2019-01-28T03:06:02.620Z,99.90
2019-01-28T03:08:31.065Z,99.90
2019-01-28T03:10:59.626Z,99.90
2019-01-28T03:13:28.086Z,99.90
2019-01-28T03:15:56.593Z,99.90
2019-01-28T03:18:25.101Z,99.90
2019-01-28T03:20:53.558Z,99.90
2019-01-28T03:23:23.991Z,99.90
2019-01-28T03:25:52.440Z,99.90
2019-01-28T03:28:20.903Z,99.90
2019-01-28T03:30:49.453Z,99.90
2019-01-28T03:33:17.960Z,99.90
2019-01-28T03:35:46.487Z,99.90
2019-01-28T03:38:14.982Z,99.90
2019-01-28T03:40:43.491Z,99.90
2019-01-28T03:43:12.009Z,99.90
2019-01-28T03:45:40.562Z,99.90
2019-01-28T03:48:09.231Z,99.90
2019-01-28T03:50:37.796Z,99.90
2019-01-28T03:53:06.577Z,99.90
2019-01-28T03:55:37.177Z,99.90
2019-01-28T03:58:05.763Z,99.90
2019-01-28T04:00:34.555Z,99.90
2019-01-28T04:03:03.031Z,99.90
2019-01-28T04:05:31.774Z,99.90
2019-01-28T04:08:00.427Z,99.90
2019-01-28T04:10:28.945Z,99.90
2019-01-28T04:12:57.498Z,99.90
2019-01-28T04:15:26.797Z,99.90
2019-01-28T04:17:55.486Z,99.90
2019-01-28T04:20:25.582Z,99.90
2019-01-28T04:22:54.094Z,99.90
2019-01-28T04:25:23.987Z,99.90
2019-01-28T04:27:52.700Z,99.90
2019-01-28T04:30:26.343Z,99.90
2019-01-28T04:32:55.020Z,99.90
2019-01-28T04:35:23.790Z,99.90
2019-01-28T04:37:52.344Z,99.90
2019-01-28T04:40:20.812Z,99.90
2019-01-28T04:42:49.537Z,99.90
2019-01-28T04:45:19.789Z,99.90
2019-01-28T04:47:49.186Z,99.90
2019-01-28T04:50:19.485Z,99.90
2019-01-28T04:52:48.706Z,99.90
2019-01-28T04:55:17.726Z,99.90
2019-01-28T04:57:46.259Z,99.90
2019-01-28T05:00:20.504Z,99.90
2019-01-28T05:02:49.354Z,99.90
2019-01-28T05:05:17.931Z,99.90
2019-01-28T05:07:46.511Z,99.90
2019-01-28T05:10:16.924Z,99.90
2019-01-28T05:12:45.605Z,99.90
2019-01-28T05:15:16.816Z,99.90
2019-01-28T05:17:45.643Z,99.90
2019-01-28T05:20:19.826Z,99.90
2019-01-28T05:22:48.694Z,99.90
2019-01-28T05:25:18.062Z,99.90
2019-01-28T05:27:46.975Z,99.90
2019-01-28T05:30:23.967Z,99.90
2019-01-28T05:32:52.585Z,99.90
2019-01-28T05:35:22.568Z,99.90
2019-01-28T05:37:51.185Z,99.90
2019-01-28T05:40:24.319Z,99.90
2019-01-28T05:42:52.885Z,99.90
2019-01-28T05:45:23.041Z,99.90
2019-01-28T05:47:51.599Z,99.90
2019-01-28T05:50:20.461Z,99.90
2019-01-28T05:52:49.271Z,99.90
2019-01-28T05:55:19.097Z,99.90
2019-01-28T05:57:48.000Z,99.90
2019-01-28T06:00:26.366Z,99.90
2019-01-28T06:02:54.860Z,99.90
2019-01-28T06:05:23.559Z,99.90
2019-01-28T06:07:52.079Z,99.90
2019-01-28T06:10:20.601Z,99.90
2019-01-28T06:12:49.063Z,99.90
2019-01-28T06:15:19.562Z,99.90
2019-01-28T06:17:48.515Z,99.90
2019-01-28T06:20:36.906Z,99.90
2019-01-28T08:25:21.881Z,99.90
2019-01-28T08:27:50.966Z,99.90
2019-01-28T08:30:31.130Z,99.90
2019-01-28T08:32:59.730Z,99.90
2019-01-28T08:35:29.918Z,99.90
2019-01-28T08:37:58.542Z,99.90
2019-01-28T08:40:27.377Z,99.90
2019-01-28T08:42:55.964Z,99.90
2019-01-28T08:45:24.739Z,99.90
2019-01-28T08:47:53.210Z,99.90
2019-01-28T08:50:26.835Z,99.90
2019-01-28T08:52:55.381Z,99.90
2019-01-28T08:55:25.904Z,99.90
2019-01-28T08:57:54.617Z,99.90
2019-01-28T09:00:32.210Z,99.90
2019-01-28T09:03:00.969Z,99.90
2019-01-28T09:05:29.653Z,99.90
2019-01-28T09:07:58.285Z,99.90
2019-01-28T09:10:28.652Z,99.90
2019-01-28T09:12:57.101Z,99.90
2019-01-28T09:15:26.033Z,99.90
2019-01-28T09:17:55.154Z,99.90
2019-01-28T09:20:28.938Z,99.90
2019-01-28T09:22:57.380Z,99.90
2019-01-28T09:25:25.927Z,99.90
2019-01-28T09:27:54.473Z,99.90
2019-01-28T09:30:31.963Z,99.90
2019-01-28T09:33:00.409Z,99.90
2019-01-28T09:35:29.132Z,99.90
2019-01-28T09:37:57.964Z,99.90
2019-01-28T09:40:32.450Z,99.90
2019-01-28T09:43:00.900Z,99.90
2019-01-28T09:45:31.776Z,99.90
2019-01-28T09:48:00.258Z,99.90
2019-01-28T09:50:28.767Z,99.90
2019-01-28T09:52:58.088Z,99.90
2019-01-28T09:55:26.691Z,99.90
2019-01-28T09:57:55.318Z,99.90
2019-01-28T10:00:29.734Z,99.90
2019-01-28T10:02:58.532Z,99.90
2019-01-28T10:05:27.211Z,99.90
2019-01-28T10:07:56.733Z,99.90
2019-01-28T10:10:25.355Z,99.90
2019-01-28T10:12:53.964Z,99.90
2019-01-28T10:15:28.783Z,99.90
2019-01-28T10:17:55.635Z,99.90
2019-01-28T10:20:32.939Z,99.90
2019-01-28T10:23:01.484Z,99.90
2019-01-28T10:25:30.015Z,99.90
2019-01-28T10:27:58.621Z,99.90
2019-01-28T10:30:32.375Z,99.90
2019-01-28T10:33:01.242Z,99.90
2019-01-28T10:35:31.919Z,99.90
2019-01-28T10:38:00.541Z,99.90
2019-01-28T10:40:31.633Z,99.90
2019-01-28T10:43:00.327Z,99.90
2019-01-28T10:45:28.881Z,99.90
2019-01-28T10:48:00.602Z,99.90
2019-01-28T10:50:28.524Z,99.90
2019-01-28T10:52:57.119Z,99.90
2019-01-28T10:55:27.040Z,99.90
2019-01-28T10:57:56.155Z,99.90
2019-01-28T11:00:30.076Z,99.90
2019-01-28T11:02:59.060Z,99.90
2019-01-28T11:05:27.590Z,99.90
2019-01-28T11:07:56.360Z,99.90
2019-01-28T11:10:27.079Z,99.90
2019-01-28T11:12:55.878Z,99.90
2019-01-28T11:15:31.148Z,99.90
2019-01-28T11:18:02.742Z,99.90
2019-01-28T11:20:31.472Z,99.90
2019-01-28T11:23:00.272Z,99.90
2019-01-28T11:25:31.608Z,99.90
2019-01-28T11:28:00.499Z,99.90
2019-01-28T11:30:33.852Z,99.90
2019-01-28T11:33:02.351Z,99.90
2019-01-28T11:35:30.870Z,99.90
2019-01-28T11:37:59.390Z,99.90
2019-01-28T11:40:27.993Z,99.90
2019-01-28T11:42:56.532Z,99.40
2019-01-28T11:45:43.182Z,98.10
2019-01-28T11:48:11.817Z,97.30
2019-01-28T11:50:40.388Z,95.00
2019-01-28T11:53:08.940Z,93.40
2019-01-28T11:55:37.469Z,93.20
2019-01-28T11:58:06.153Z,91.70
2019-01-28T12:00:42.038Z,90.80
2019-01-28T12:03:10.620Z,88.80
2019-01-28T12:05:39.126Z,87.60
2019-01-28T12:08:07.716Z,86.00
2019-01-28T12:10:36.238Z,83.40
2019-01-28T12:13:05.791Z,80.60
2019-01-28T12:15:34.316Z,77.80
2019-01-28T12:18:02.784Z,76.50
2019-01-28T12:20:31.260Z,73.00
2019-01-28T12:22:59.705Z,73.80
2019-01-28T12:25:28.168Z,71.50
2019-01-28T12:27:56.730Z,70.10
2019-01-28T12:30:30.092Z,69.70
2019-01-28T12:32:58.545Z,69.50
2019-01-28T12:35:27.133Z,67.80
2019-01-28T12:37:55.585Z,69.10
2019-01-28T12:40:24.680Z,71.20
2019-01-28T12:42:53.165Z,70.80
2019-01-28T12:45:23.275Z,72.30
2019-01-28T12:47:51.961Z,74.90
2019-01-28T12:50:21.797Z,75.90
2019-01-28T12:52:50.422Z,77.00
2019-01-28T12:55:23.472Z,78.50
2019-01-28T12:57:51.913Z,79.80
2019-01-28T13:00:24.788Z,81.90
2019-01-28T13:02:53.308Z,80.10
2019-01-28T13:05:23.637Z,79.90
2019-01-28T13:07:52.102Z,80.50
2019-01-28T13:10:23.149Z,79.90
2019-01-28T13:12:51.706Z,79.30
2019-01-28T13:15:22.865Z,79.70
2019-01-28T13:17:51.581Z,80.00
2019-01-28T13:20:20.284Z,79.90
2019-01-28T13:22:49.392Z,78.80
2019-01-28T13:25:20.508Z,78.70
2019-01-28T13:27:49.024Z,80.10
2019-01-28T13:30:19.947Z,82.20
2019-01-28T13:32:49.077Z,81.50
2019-01-28T13:35:17.537Z,81.40
2019-01-28T13:37:46.033Z,82.60
2019-01-28T13:40:16.028Z,83.10
2019-01-28T13:42:44.487Z,84.40
2019-01-28T13:45:16.314Z,85.70
2019-01-28T13:47:45.011Z,87.10
2019-01-28T13:50:21.698Z,87.70
2019-01-28T13:52:51.343Z,87.90
2019-01-28T13:55:21.529Z,88.50
2019-01-28T13:57:50.223Z,87.10
2019-01-28T14:00:23.665Z,88.10
2019-01-28T14:02:52.364Z,90.00
2019-01-28T14:05:21.048Z,89.60
2019-01-28T14:07:50.698Z,87.50
2019-01-28T14:10:21.351Z,87.60
2019-01-28T14:12:49.954Z,87.40
2019-01-28T14:15:29.838Z,86.80
2019-01-28T14:17:58.371Z,85.40
2019-01-28T14:20:29.610Z,86.40
2019-01-28T14:22:58.127Z,85.60
2019-01-28T14:25:26.690Z,85.60
2019-01-28T14:27:55.207Z,85.70
2019-01-28T14:30:26.987Z,85.20
2019-01-28T14:32:55.618Z,85.00
2019-01-28T14:35:24.144Z,84.00
2019-01-28T14:37:52.664Z,83.90
2019-01-28T14:40:23.683Z,84.20
2019-01-28T14:42:52.215Z,84.10
2019-01-28T14:45:20.671Z,84.80
2019-01-28T14:47:49.149Z,83.80
2019-01-28T14:50:23.148Z,83.60
2019-01-28T14:52:51.744Z,83.20
2019-01-28T14:55:20.377Z,82.90
2019-01-28T14:57:48.996Z,81.50
2019-01-28T15:00:28.963Z,82.80
2019-01-28T15:02:57.566Z,83.00
2019-01-28T15:05:26.242Z,79.90
2019-01-28T15:07:54.847Z,79.40
2019-01-28T15:10:23.810Z,78.90
2019-01-28T15:12:52.326Z,80.20
2019-01-28T15:15:23.794Z,78.20
2019-01-28T15:17:52.389Z,77.30
2019-01-28T15:20:23.945Z,77.70
2019-01-28T15:22:52.493Z,78.00
2019-01-28T15:25:21.082Z,76.00
2019-01-28T15:27:49.562Z,77.30
2019-01-28T15:30:26.392Z,76.40
2019-01-28T15:32:55.022Z,76.60
2019-01-28T15:35:23.697Z,77.30
2019-01-28T15:37:52.156Z,77.10
2019-01-28T15:40:29.526Z,76.30
2019-01-28T15:42:58.080Z,76.20
2019-01-28T15:45:35.098Z,76.30
2019-01-28T15:48:04.103Z,77.40
2019-01-28T15:50:32.641Z,76.90
2019-01-28T15:53:01.104Z,77.30
2019-01-28T15:55:37.422Z,78.80
2019-01-28T15:58:06.484Z,78.80
2019-01-28T16:00:36.819Z,78.60
2019-01-28T16:03:07.057Z,78.40
2019-01-28T16:05:35.605Z,78.90
2019-01-28T16:08:04.612Z,79.20
2019-01-28T16:10:33.077Z,79.70
2019-01-28T16:13:01.625Z,78.30
2019-01-28T16:15:32.845Z,79.70
2019-01-28T16:18:01.391Z,79.40
2019-01-28T16:20:29.940Z,79.30
2019-01-28T16:22:59.008Z,80.10
2019-01-28T16:25:27.480Z,79.80
2019-01-28T16:27:57.339Z,80.20
2019-01-28T16:30:27.826Z,80.50
2019-01-28T16:32:56.368Z,80.40
2019-01-28T16:35:25.262Z,80.50
2019-01-28T16:37:54.466Z,80.40
2019-01-28T16:40:29.941Z,80.30
2019-01-28T16:42:59.145Z,81.30
2019-01-28T16:45:27.972Z,81.00
2019-01-28T16:47:56.744Z,81.70
2019-01-28T16:50:28.279Z,81.70
2019-01-28T16:52:56.980Z,82.20
2019-01-28T16:55:25.603Z,83.10
2019-01-28T16:57:54.489Z,84.00
2019-01-28T17:00:25.654Z,84.00
2019-01-28T17:02:54.146Z,85.70
2019-01-28T17:05:22.818Z,85.20
2019-01-28T17:07:51.508Z,86.10
2019-01-28T17:10:20.128Z,86.50
2019-01-28T17:12:48.639Z,87.30
2019-01-28T17:15:19.234Z,88.50
2019-01-28T17:17:47.754Z,88.70
2019-01-28T17:20:18.889Z,89.20
2019-01-28T17:22:48.004Z,89.10
2019-01-28T17:25:19.480Z,90.00
2019-01-28T17:27:48.020Z,90.40
2019-01-28T17:30:19.578Z,90.90
2019-01-28T17:32:48.102Z,91.50
2019-01-28T17:35:16.653Z,92.20
2019-01-28T17:37:45.121Z,93.50
2019-01-28T17:40:16.680Z,94.80
2019-01-28T17:42:45.125Z,95.60
2019-01-28T17:45:15.319Z,96.40
2019-01-28T17:47:43.876Z,98.30
2019-01-28T17:50:13.467Z,99.70
2019-01-28T17:52:41.929Z,99.90
2019-01-28T17:55:12.057Z,99.90
2019-01-28T17:57:40.509Z,99.90
2019-01-28T18:00:29.319Z,99.90
2019-01-28T18:02:52.170Z,99.90
2019-01-28T18:05:20.693Z,99.90
2019-01-28T18:07:49.260Z,99.90
2019-01-28T18:10:18.041Z,99.90
2019-01-28T18:12:46.651Z,99.90
2019-01-28T18:15:20.727Z,99.90
2019-01-28T18:17:49.183Z,99.90
2019-01-28T18:20:18.096Z,99.90
2019-01-28T18:22:47.496Z,99.90
2019-01-28T18:25:18.097Z,99.90
2019-01-28T18:27:46.753Z,99.90
2019-01-28T18:30:22.665Z,99.90
2019-01-28T18:32:51.147Z,99.90
2019-01-28T18:35:19.745Z,99.90
2019-01-28T18:37:48.295Z,99.90
2019-01-28T18:40:18.282Z,99.90
2019-01-28T18:42:46.852Z,99.90
2019-01-28T18:45:18.503Z,99.90
2019-01-28T18:47:47.673Z,99.90
2019-01-28T18:50:20.372Z,99.90
2019-01-28T18:52:49.537Z,99.90
2019-01-28T18:55:22.634Z,99.90
2019-01-28T18:57:51.145Z,99.90
2019-01-28T19:00:30.760Z,99.90
2019-01-28T19:02:59.373Z,99.90
2019-01-28T19:05:47.386Z,99.90
2019-01-28T19:08:19.985Z,99.90
2019-01-28T19:11:06.348Z,99.90
2019-01-28T19:13:39.452Z,99.90
2019-01-28T19:16:12.389Z,99.90
2019-01-28T19:18:58.720Z,99.90
2019-01-28T19:21:28.917Z,99.90
2019-01-28T19:23:57.484Z,99.90
2019-01-28T19:26:26.002Z,99.90
2019-01-28T19:28:54.606Z,99.90
2019-01-28T19:31:23.153Z,99.90
2019-01-28T19:33:51.630Z,99.90
2019-01-28T19:36:20.202Z,99.90
2019-01-28T19:38:48.659Z,99.90
2019-01-28T19:41:17.198Z,99.90
2019-01-28T19:43:45.741Z,99.90
2019-01-28T19:46:14.188Z,99.90
2019-01-28T19:48:42.644Z,99.90
2019-01-28T19:51:15.615Z,99.90
2019-01-28T19:53:41.397Z,99.90
2019-01-28T19:56:10.320Z,99.90
2019-01-28T19:58:38.837Z,99.90
2019-01-28T20:01:07.717Z,99.90
2019-01-28T20:03:36.273Z,99.90
2019-01-28T20:06:05.001Z,99.90
2019-01-28T20:08:33.503Z,99.90
2019-01-28T20:11:01.978Z,99.90
2019-01-28T20:13:30.574Z,99.90
2019-01-28T20:15:59.119Z,99.90
2019-01-28T20:18:27.663Z,99.90
2019-01-28T20:20:56.128Z,99.90
2019-01-28T20:23:24.800Z,99.90
2019-01-28T20:25:55.313Z,99.90
2019-01-28T20:28:23.796Z,99.90
2019-01-28T20:30:52.305Z,99.90
2019-01-28T20:33:20.905Z,99.90
2019-01-28T20:35:49.537Z,99.90
2019-01-28T20:38:17.988Z,99.90
2019-01-28T20:40:46.473Z,99.90
2019-01-28T20:43:14.930Z,99.90
2019-01-28T20:45:45.232Z,99.90
2019-01-28T20:48:13.606Z,99.90
2019-01-28T20:50:42.099Z,99.90
2019-01-28T20:53:10.668Z,99.90
2019-01-28T20:55:39.178Z,99.90
2019-01-28T20:58:07.791Z,99.90
2019-01-28T21:00:36.340Z,99.90
2019-01-28T21:03:05.149Z,99.90
2019-01-28T21:05:33.793Z,99.90
2019-01-28T21:08:02.359Z,99.90
2019-01-28T21:10:31.023Z,99.90
2019-01-28T21:12:59.561Z,99.90
2019-01-28T21:15:28.099Z,99.90
2019-01-28T21:17:56.609Z,99.90
2019-01-28T21:20:25.267Z,99.90
2019-01-28T21:22:53.791Z,99.90
2019-01-28T21:25:24.700Z,99.90
2019-01-28T21:27:53.219Z,99.90
2019-01-28T21:30:30.572Z,99.90
2019-01-28T21:32:59.183Z,99.90
2019-01-28T21:35:35.250Z,99.90
2019-01-28T21:38:05.677Z,99.90
2019-01-28T21:40:34.155Z,99.90
2019-01-28T21:43:02.614Z,99.90
2019-01-28T21:45:31.145Z,99.90
2019-01-28T21:47:59.832Z,99.90
2019-01-28T21:50:28.456Z,99.90
2019-01-28T21:52:56.964Z,99.90
2019-01-28T21:55:25.626Z,99.90
2019-01-28T21:57:54.080Z,99.90
2019-01-28T22:00:22.770Z,99.90
2019-01-28T22:02:51.256Z,99.90
2019-01-28T22:05:19.785Z,99.90
2019-01-28T22:07:48.323Z,99.90
2019-01-28T22:10:16.920Z,99.90
2019-01-28T22:12:45.639Z,99.90
2019-01-28T22:15:18.758Z,99.90
2019-01-28T22:17:47.272Z,99.90
2019-01-28T22:20:16.067Z,99.90
2019-01-28T22:22:44.769Z,99.90
2019-01-28T22:25:17.837Z,99.90
2019-01-28T22:27:46.395Z,99.90
2019-01-28T22:30:20.993Z,99.90
2019-01-28T22:32:49.809Z,99.90
2019-01-28T22:35:18.471Z,99.90
2019-01-28T22:37:46.996Z,99.90
2019-01-28T22:40:19.199Z,99.90
2019-01-28T22:42:47.778Z,99.90
2019-01-28T22:45:18.464Z,99.90
2019-01-28T22:47:47.060Z,99.90
2019-01-28T22:50:17.060Z,99.90
2019-01-28T22:52:45.975Z,99.90
2019-01-28T22:55:17.539Z,99.90
2019-01-28T22:57:46.012Z,99.90
2019-01-28T23:00:41.652Z,99.90
2019-01-28T23:03:10.126Z,99.90
2019-01-28T23:05:38.642Z,99.90
2019-01-28T23:08:07.256Z,99.90
2019-01-28T23:10:36.106Z,99.90
2019-01-28T23:13:05.429Z,99.90
2019-01-28T23:15:33.889Z,99.90
2019-01-28T23:18:02.429Z,99.90
2019-01-28T23:20:30.893Z,99.90
2019-01-28T23:22:59.427Z,99.90
2019-01-28T23:25:27.967Z,99.90
2019-01-28T23:27:56.421Z,99.90
2019-01-28T23:30:25.039Z,99.90
2019-01-28T23:32:53.563Z,99.90
2019-01-28T23:35:22.017Z,99.90
2019-01-28T23:37:50.640Z,99.90
2019-01-28T23:40:19.105Z,99.90
2019-01-28T23:42:47.774Z,99.90
2019-01-28T23:45:16.479Z,99.90
2019-01-28T23:47:44.972Z,99.90
2019-01-28T23:50:14.115Z,99.90
2019-01-28T23:52:42.606Z,99.90
2019-01-28T23:55:11.285Z,99.90
2019-01-28T23:57:39.741Z,99.90
